Latest Weather Observations for Essendon Airport

IDV60801

Issued at 2:31 pm EST Saturday 30 May 2015 (issued every 30 minutes, with the page automatically refreshed every 10 minutes)

About weather observations | Map of weather stations | Latest weather observations for VIC | Other Formats
Station Details ID: 086038 Name: ESSENDON AIRPORT Lat: -37.73 Lon: 144.91 Height: 78.4 m
Data from the previous 72 hours. | See also: Recent months at Essendon Airport
Date/Time
EST
Temp
°C
App
Temp
°C
Dew
Point
Rel
Hum
%
Delta-T
°C
Wind Press
QNH
hPa
Press
MSL
hPa
Rain
since 9 am
mm
Dir
 
Spd
km/h
Gust
km/h
Spd
kts
Gust
kts
30/02:30pm 16.6 9.4 6.1 50 5.1 NW 33 43 18 23 1016.2 1016.2 0.0
30/02:00pm 16.5 9.3 5.8 49 5.2 NW 33 44 18 24 1016.4 1016.4 0.0
30/01:43pm 16.0 8.9 5.6 50 5.0 NW 32 50 17 27 1016.6 1016.6 0.0
30/01:30pm 16.0 8.0 5.6 50 5.0 NW 37 52 20 28 1016.8 1016.8 0.0
30/01:05pm 16.1 8.9 5.7 50 5.0 NW 33 52 18 28 1017.0 1017.0 0.0
30/01:00pm 15.6 7.6 5.8 52 4.7 NW 37 52 20 28 1016.9 1016.9 0.0
30/12:30pm 15.3 7.5 4.9 50 4.9 NW 35 48 19 26 1017.5 1017.5 0.0
30/12:05pm 15.8 8.9 6.5 54 4.6 NNW 32 50 17 27 1017.9 1017.9 0.0
30/12:00pm 15.6 8.4 5.8 52 4.7 NNW 33 50 18 27 1017.9 1017.9 0.0
30/11:30am 15.3 8.6 5.5 52 4.7 NNW 30 44 16 24 1018.7 1018.7 0.0
30/11:00am 14.7 8.1 6.0 56 4.2 NNW 30 44 16 24 1019.2 1019.2 0.0
30/10:30am 14.1 7.9 6.2 59 3.8 NNW 28 39 15 21 1019.8 1019.8 0.0
30/10:00am 13.4 6.8 6.0 61 3.5 NNW 30 41 16 22 1020.0 1020.0 0.0
30/09:30am 13.0 8.6 6.4 64 3.2 N 19 28 10 15 1020.3 1020.3 0.0
30/09:00am 12.3 8.3 6.8 69 2.6 N 17 20 9 11 1020.5 1020.5 0.0
30/08:30am 11.2 6.8 6.7 74 2.1 N 19 24 10 13 1020.5 1020.5 0.0
30/08:00am 10.1 6.0 6.3 77 1.8 N 17 22 9 12 1020.4 1020.4 0.0
30/07:30am 9.1 5.7 5.8 80 1.5 N 13 15 7 8 1020.2 1020.2 0.0
30/07:00am 10.1 6.0 6.1 76 1.9 NNW 17 22 9 12 1020.1 1020.1 0.0
30/06:30am 10.5 5.4 6.1 74 2.1 NNW 22 30 12 16 1020.2 1020.2 0.0
30/06:00am 10.2 6.6 6.7 79 1.6 NNW 15 20 8 11 1020.1 1020.1 0.0
30/05:30am 9.5 5.8 6.4 81 1.4 N 15 20 8 11 1019.9 1019.9 0.0
30/05:00am 10.0 6.4 6.7 80 1.5 N 15 20 8 11 1019.9 1019.9 0.0
30/04:30am 10.6 6.2 6.7 77 1.8 N 19 24 10 13 1019.8 1019.8 0.0
30/04:00am 10.9 7.7 6.8 76 1.9 NNW 13 20 7 11 1020.0 1020.0 0.0
30/03:30am 10.7 6.3 6.6 76 1.9 N 19 26 10 14 1020.2 1020.2 0.0
30/03:00am 11.0 6.4 6.7 75 2.0 N 20 26 11 14 1020.4 1020.4 0.0
30/02:30am 11.0 6.5 6.9 76 2.0 N 20 28 11 15 1020.5 1020.5 0.0
30/02:00am 11.0 7.1 6.9 76 1.9 N 17 26 9 14 1020.7 1020.7 0.0
30/01:30am 11.4 7.2 7.3 76 2.0 N 19 26 10 14 1020.8 1020.8 0.0
30/01:00am 11.4 7.5 6.9 74 2.1 N 17 24 9 13 1021.4 1021.4 0.0
30/12:30am 11.8 7.7 6.1 68 2.7 NNW 17 22 9 12 1021.7 1021.7 0.0
30/12:00am 11.9 8.1 6.0 67 2.8 NNW 15 19 8 10 1021.9 1021.9 0.0
 
Date/Time
EST
Temp
°C
App
Temp
°C
Dew
Point
Rel
Hum
%
Delta-T
°C
Wind Press
QNH
hPa
Press
MSL
hPa
Rain
since 9 am
mm
Dir
 
Spd
km/h
Gust
km/h
Spd
kts
Gust
kts
29/11:30pm 12.1 7.6 5.9 66 2.9 NNW 19 26 10 14 1021.9 1021.9 0.0
29/11:00pm 12.2 8.0 5.8 65 3.0 N 17 22 9 12 1021.9 1021.9 0.0
29/10:30pm 12.1 7.9 5.9 66 2.9 N 17 22 9 12 1022.0 1022.0 0.0
29/10:00pm 11.6 8.2 5.7 67 2.7 N 13 19 7 10 1021.9 1021.9 0.0
29/09:30pm 12.1 7.9 5.5 64 3.1 N 17 24 9 13 1022.0 1022.0 0.0
29/09:00pm 12.3 8.5 5.7 64 3.1 NNW 15 20 8 11 1022.0 1022.0 0.0
29/08:30pm 12.4 8.2 5.8 64 3.1 NNW 17 22 9 12 1022.1 1022.2 0.0
29/08:00pm 11.9 8.1 5.8 66 2.8 NNW 15 19 8 10 1022.0 1022.0 0.0
29/07:30pm 11.8 8.3 5.4 65 3.0 N 13 20 7 11 1022.1 1022.2 0.0
29/07:00pm 12.7 9.2 5.6 62 3.3 NNW 13 20 7 11 1021.8 1021.8 0.0
29/06:30pm 13.1 9.2 5.5 60 3.6 NNW 15 20 8 11 1021.7 1021.7 0.0
29/06:00pm 13.0 9.5 5.4 60 3.5 NNW 13 17 7 9 1021.4 1021.4 0.0
29/05:30pm 13.0 9.9 5.7 61 3.4 NNW 11 13 6 7 1021.2 1021.2 0.0
29/05:00pm 13.7 10.2 5.3 57 3.9 NNW 13 17 7 9 1021.0 1021.0 0.0
29/04:30pm 14.0 9.7 5.1 55 4.2 NW 17 20 9 11 1021.0 1021.0 0.0
29/04:00pm 14.4 10.5 5.5 55 4.2 NW 15 20 8 11 1020.8 1020.8 0.0
29/03:30pm 14.6 10.3 5.1 53 4.5 NW 17 20 9 11 1020.8 1020.8 0.0
29/03:00pm 14.5 10.3 5.6 55 4.2 WNW 17 20 9 11 1020.8 1020.8 0.0
29/02:30pm 14.4 9.7 5.2 54 4.3 WNW 19 24 10 13 1020.7 1020.7 0.0
29/02:00pm 14.3 9.7 5.4 55 4.2 WNW 19 26 10 14 1020.7 1020.7 0.0
29/01:30pm 14.2 8.6 5.6 56 4.1 WNW 24 33 13 18 1020.8 1020.8 0.0
29/01:00pm 14.0 8.7 4.9 54 4.2 WNW 22 30 12 16 1021.0 1021.0 0.0
29/12:30pm 14.6 9.8 5.4 54 4.4 WNW 20 28 11 15 1021.2 1021.2 0.0
29/12:00pm 13.8 9.0 5.4 57 3.9 W 20 30 11 16 1021.6 1021.6 0.0
29/11:30am 14.8 9.7 6.1 56 4.2 W 22 30 12 16 1021.9 1021.9 0.0
29/11:00am 14.0 9.3 6.1 59 3.8 NW 20 32 11 17 1022.2 1022.3 0.0
29/10:30am 12.6 8.1 6.0 64 3.1 WNW 19 26 10 14 1022.3 1022.4 0.0
29/10:00am 12.4 8.0 6.7 68 2.7 NW 19 28 10 15 1022.1 1022.2 0.0
29/09:30am 11.6 6.4 5.7 67 2.8 NW 22 30 12 16 1021.9 1021.9 0.0
29/09:00am 10.7 6.9 5.7 71 2.3 NNW 15 19 8 10 1021.9 1021.9 0.0
29/08:30am 8.9 5.3 4.9 76 1.8 N 13 17 7 9 1021.6 1021.6 0.0
29/08:00am 7.7 4.0 4.5 80 1.4 N 13 17 7 9 1021.3 1021.3 0.0
29/07:30am 7.0 3.6 3.8 80 1.4 N 11 13 6 7 1020.8 1020.8 0.0
29/07:00am 7.7 3.5 3.9 77 1.6 NNW 15 17 8 9 1020.6 1020.6 0.0
29/06:30am 7.7 4.2 3.7 76 1.7 N 11 15 6 8 1020.5 1020.5 0.0
29/06:00am 8.2 4.1 4.4 77 1.7 NNW 15 19 8 10 1020.1 1020.1 0.0
29/05:30am 7.0 3.6 4.0 81 1.3 N 11 13 6 7 1020.0 1020.0 0.0
29/05:00am 8.6 4.6 4.8 77 1.7 NW 15 17 8 9 1019.4 1019.4 0.0
29/04:30am 9.1 5.8 4.7 74 2.0 NW 11 11 6 6 1019.2 1019.2 0.0
29/04:00am 9.7 6.5 4.9 72 2.2 NW 11 13 6 7 1019.1 1019.1 0.0
29/03:30am 10.0 5.7 5.4 73 2.1 NW 17 20 9 11 1019.0 1019.0 0.0
29/03:00am 10.5 6.7 5.7 72 2.2 WNW 15 17 8 9 1018.9 1018.9 0.0
29/02:30am 10.7 7.3 5.7 71 2.3 WNW 13 17 7 9 1018.7 1018.7 0.0
29/02:00am 12.3 8.2 6.1 66 2.9 WNW 17 24 9 13 1018.6 1018.6 0.0
29/01:30am 12.7 8.2 6.3 65 3.0 WNW 19 30 10 16 1018.2 1018.2 0.0
29/01:00am 12.8 8.5 7.0 68 2.8 WNW 19 26 10 14 1017.9 1017.9 0.0
29/12:30am 13.1 8.4 7.8 70 2.6 WNW 22 33 12 18 1017.8 1017.8 0.0
29/12:00am 13.2 8.7 8.7 74 2.3 W 22 32 12 17 1017.5 1017.5 0.0
 
Date/Time
EST
Temp
°C
App
Temp
°C
Dew
Point
Rel
Hum
%
Delta-T
°C
Wind Press
QNH
hPa
Press
MSL
hPa
Rain
since 9 am
mm
Dir
 
Spd
km/h
Gust
km/h
Spd
kts
Gust
kts
28/11:30pm 13.3 8.5 8.8 74 2.3 W 24 35 13 19 1017.4 1017.4 0.0
28/11:00pm 13.3 9.4 8.8 74 2.3 W 19 26 10 14 1017.3 1017.3 0.0
28/10:30pm 13.2 7.6 8.9 75 2.2 WSW 28 35 15 19 1016.9 1016.9 0.0
28/10:00pm 13.1 9.5 10.6 85 1.3 WSW 20 26 11 14 1017.0 1017.0 0.0
28/09:30pm 13.8 10.8 10.6 81 1.7 SW 17 20 9 11 1017.0 1017.0 0.0
28/09:00pm 14.1 11.3 9.9 76 2.2 WSW 15 19 8 10 1016.6 1016.6 0.0
28/08:30pm 14.5 9.6 9.9 74 2.4 SW 26 33 14 18 1016.3 1016.3 0.0
28/08:00pm 15.5 12.1 9.2 66 3.2 N 17 22 9 12 1015.3 1015.3 0.0
28/07:30pm 15.3 11.7 9.9 70 2.8 N 19 24 10 13 1014.7 1014.8 0.0
28/07:00pm 15.1 11.8 9.7 70 2.8 N 17 24 9 13 1014.4 1014.5 0.0
28/06:30pm 15.8 12.1 9.5 66 3.3 N 19 26 10 14 1014.0 1014.1 0.0
28/06:00pm 16.4 12.6 9.1 62 3.8 N 19 26 10 14 1013.7 1013.8 0.0
28/05:30pm 17.1 13.2 8.8 58 4.3 N 19 26 10 14 1013.5 1013.6 0.0
28/05:00pm 17.5 12.6 8.6 56 4.6 N 24 35 13 19 1013.1 1013.2 0.0
28/04:30pm 18.2 13.0 9.0 55 4.8 N 26 35 14 19 1013.2 1013.3 0.0
28/04:00pm 18.6 12.8 9.4 55 4.9 N 30 44 16 24 1013.3 1013.4 0.0
28/03:30pm 18.8 13.4 9.6 55 4.9 N 28 41 15 22 1013.7 1013.8 0.0
28/03:00pm 18.8 14.0 10.4 58 4.5 N 26 37 14 20 1013.8 1013.9 0.0
28/02:30pm 18.1 13.2 11.4 65 3.7 N 28 39 15 21 1013.9 1014.0 0.0
28/02:09pm 17.8 12.8 11.1 65 3.6 N 28 46 15 25 1014.0 1014.1 0.0
28/02:00pm 18.0 12.7 11.1 64 3.7 N 30 43 16 23 1014.2 1014.3 0.0
28/01:30pm 19.0 13.9 10.6 58 4.5 NNW 28 39 15 21 1014.2 1014.3 0.0
28/01:00pm 17.9 12.5 11.0 64 3.7 N 30 44 16 24 1014.4 1014.5 0.0
28/12:31pm 17.2 12.2 11.0 67 3.3 N 28 46 15 25 1015.0 1015.1 0.0
28/12:30pm 17.5 12.9 11.1 66 3.5 N 26 35 14 19 1015.2 1015.2 0.0
28/12:00pm 16.6 10.9 11.1 70 3.0 N 32 41 17 22 1015.9 1015.9 0.0
28/11:30am 15.4 10.4 10.8 74 2.4 N 28 43 15 23 1016.5 1016.5 0.0
28/11:00am 15.2 9.1 10.6 74 2.4 N 33 46 18 25 1016.9 1016.9 0.0
28/10:48am 15.3 9.8 10.5 73 2.5 N 30 50 16 27 1017.1 1017.1 0.0
28/10:30am 15.4 10.0 11.0 75 2.4 N 30 41 16 22 1017.5 1017.5 0.0
28/10:00am 14.3 8.2 10.5 78 2.0 N 33 44 18 24 1017.5 1017.5 0.0
28/09:35am 13.6 7.7 10.6 82 1.6 N 32 52 17 28 1017.4 1017.4 0.0
28/09:30am 13.5 7.7 10.7 83 1.5 N 32 43 17 23 1017.5 1017.5 0.0
28/09:00am 13.3 7.3 10.7 84 1.4 N 33 46 18 25 1017.5 1017.5 0.0
28/08:30am 13.3 7.5 10.8 85 1.3 N 32 43 17 23 1017.3 1017.3 0.0
28/08:00am 12.7 6.3 10.6 87 1.1 N 35 50 19 27 1017.2 1017.2 0.0
28/07:49am 12.6 6.8 10.7 88 1.0 N 32 50 17 27 1017.1 1017.1 0.0
28/07:30am 12.4 6.5 10.5 88 1.0 N 32 46 17 25 1017.1 1017.1 0.0
28/07:00am 12.4 6.9 10.6 89 0.9 N 30 43 16 23 1016.9 1016.9 0.0
28/06:30am 12.4 6.5 10.5 88 1.0 N 32 46 17 25 1016.5 1016.5 0.0
28/06:00am 12.5 6.4 10.6 88 1.0 N 33 52 18 28 1016.2 1016.2 0.0
28/05:37am 12.6 5.0 10.5 87 1.1 N 41 63 22 34 1016.1 1016.1 0.0
28/05:30am 12.5 5.3 10.6 88 1.0 N 39 50 21 27 1016.1 1016.1 0.0
28/05:00am 12.6 5.8 10.7 88 1.0 N 37 56 20 30 1016.5 1016.5 0.0
28/04:31am 12.8 7.7 10.7 87 1.1 NNW 28 50 15 27 1016.6 1016.6 0.0
28/04:30am 12.7 7.7 10.8 88 1.0 NNW 28 43 15 23 1016.7 1016.7 0.0
28/04:24am 12.6 7.5 10.7 88 1.0 N 28 46 15 25 1016.8 1016.8 0.0
28/04:00am 12.7 6.6 10.6 87 1.1 N 33 48 18 26 1016.6 1016.6 0.0
28/03:30am 12.9 7.4 10.6 86 1.2 N 30 43 16 23 1016.8 1016.8 0.0
28/03:00am 12.9 6.5 10.6 86 1.2 N 35 44 19 24 1017.2 1017.2 0.0
28/02:30am 13.1 6.3 10.6 85 1.3 N 37 57 20 31 1017.4 1017.4 0.0
28/02:21am 13.3 6.9 10.7 84 1.4 N 35 57 19 31 1017.3 1017.3 0.0
28/02:00am 13.2 6.8 10.6 84 1.4 N 35 50 19 27 1017.4 1017.4 0.0
28/01:30am 13.1 8.8 10.6 85 1.3 N 24 35 13 19 1018.0 1018.0 0.0
28/01:00am 13.0 8.3 10.5 85 1.3 N 26 41 14 22 1018.0 1018.0 0.0
28/12:30am 13.2 8.8 10.4 83 1.5 N 24 43 13 23 1018.3 1018.3 0.0
28/12:00am 13.2 8.8 10.4 83 1.5 N 24 37 13 20 1018.4 1018.4 0.0
 
Date/Time
EST
Temp
°C
App
Temp
°C
Dew
Point
Rel
Hum
%
Delta-T
°C
Wind Press
QNH
hPa
Press
MSL
hPa
Rain
since 9 am
mm
Dir
 
Spd
km/h
Gust
km/h
Spd
kts
Gust
kts
27/11:30pm 13.2 8.0 10.4 83 1.5 N 28 37 15 20 1018.6 1018.6 0.0
27/11:10pm 13.3 8.1 10.3 82 1.6 N 28 46 15 25 1018.6 1018.6 0.0
27/11:00pm 13.2 7.7 10.4 83 1.5 N 30 43 16 23 1018.6 1018.6 0.0
27/10:30pm 13.3 7.8 10.5 83 1.5 N 30 48 16 26 1018.6 1018.6 0.0
27/10:29pm 13.3 7.8 10.5 83 1.5 N 30 48 16 26 1018.6 1018.6 0.0
27/10:00pm 13.0 7.4 10.2 83 1.4 N 30 43 16 23 1018.7 1018.7 0.0
27/09:30pm 13.1 8.6 10.1 82 1.6 N 24 35 13 19 1018.9 1018.9 0.0
27/09:00pm 13.4 8.6 10.2 81 1.7 N 26 33 14 18 1018.9 1018.9 0.0
27/08:30pm 13.7 9.6 10.1 79 1.9 N 22 32 12 17 1019.0 1019.0 0.0
27/08:00pm 14.0 9.5 10.2 78 2.0 N 24 32 13 17 1018.9 1018.9 0.0
27/07:30pm 14.2 9.4 10.2 77 2.1 N 26 39 14 21 1018.7 1018.7 0.0
27/07:00pm 14.1 9.9 9.9 76 2.2 N 22 32 12 17 1018.6 1018.6 0.0
27/06:30pm 14.5 10.3 9.9 74 2.4 N 22 33 12 18 1018.5 1018.5 0.0
27/06:00pm 14.8 8.5 9.8 72 2.6 N 33 48 18 26 1018.3 1018.3 0.0
27/05:30pm 14.9 9.6 9.9 72 2.6 N 28 37 15 20 1018.2 1018.2 0.0
27/05:00pm 15.6 10.7 9.9 69 3.0 N 26 37 14 20 1018.0 1018.0 0.0
27/04:30pm 16.2 11.3 10.1 67 3.2 N 26 41 14 22 1017.9 1017.9 0.0
27/04:00pm 16.5 12.4 10.1 66 3.4 N 22 35 12 19 1018.0 1018.0 0.0
27/03:30pm 17.0 13.4 10.4 65 3.5 N 20 32 11 17 1018.0 1018.0 0.0
27/03:00pm 17.2 12.4 10.3 64 3.7 N 26 39 14 21 1017.9 1017.9 0.0

Other Formats:

Comma delimited format used in spreadsheet applications
http://www.bom.gov.au/fwo/IDV60801/IDV60801.95866.axf

JavaScript Object Notation format (JSON) in row-major order
http://www.bom.gov.au/fwo/IDV60801/IDV60801.95866.json